• Join FlightAware (Why Join?)
  • Login
  • US Flag 
 
09:55AM EST


 

Airport Tracker/Info


-or-


 

Live Flight TrackerFlight Track Log ✈ AFL150 ✈ 20-Jun-2013 ✈ UUEE / SVO - MUHA / HAV

Flight Track Log - Related Links

Times and Time Zones

All times are in EDT time to prevent confusion due to time zone crossing. See the AFL150 flight status page for this flight to view local times or setup timezone preferences in your user account.

Time Position Orientation Groundspeed Altitude Reporting Facility
EDT Latitude Longitude Course Direction KTS MPH feet Rate Location/Type
06:16AM 55.9790 37.4670 76° East 175 201 1,800  Level FlightAware
06:17AM 55.9850 37.5090 76° East 178 205 2,800 1,800 Climbing FlightAware
06:17AM 55.9900 37.5440 76° East 180 207 3,500 1,260 Climbing FlightAware
06:18AM 55.9970 37.5890 74° East 196 226 4,000 840 Climbing FlightAware
06:18AM 56.0040 37.6320 74° East 225 259 4,300 840 Climbing FlightAware
06:18AM 56.0120 37.6880 76° East 259 298 4,800 1,200 Climbing FlightAware
06:19AM 56.0150 37.7080 75° East 264 304 5,100 1,980 Climbing FlightAware
06:19AM 56.0310 37.7420 50° Northeast 264 304 5,800 2,220 Climbing FlightAware
06:19AM 56.0490 37.7510 16° North 261 300 6,400 2,460 Climbing FlightAware
06:20AM 56.0750 37.7320 338° Northwest 261 300 7,400 1,500 Climbing FlightAware
06:21AM 56.0860 37.6780 290° West 275 316 8,400 2,280 Climbing FlightAware
06:21AM 56.0670 37.5070 259° West 293 337 11,300 2,700 Climbing FlightAware
06:22AM 56.0550 37.4080 258° West 320 368 12,400 1,320 Climbing FlightAware
06:23AM 56.0410 37.2850 259° West 355 409 13,200 1,200 Climbing FlightAware
06:23AM 56.0320 37.1790 261° West 373 429 14,000 1,800 Climbing FlightAware
06:24AM 56.0230 37.0400 263° West 384 442 15,600 1,980 Climbing FlightAware
06:25AM 56.0120 36.8970 262° West 397 457 17,000 1,020 Climbing FlightAware
06:26AM 56.0090 36.8670 260° West 400 460 17,300 2,040 Climbing FlightAware
06:26AM 55.9870 36.5880 262° West 404 465 20,300 3,180 Climbing FlightAware
06:27AM 55.9760 36.4550 262° West 406 467 21,600 1,860 Climbing FlightAware
06:28AM 55.9620 36.2910 261° West 406 467 23,100 1,560 Climbing FlightAware
06:29AM 55.9510 36.1600 262° West 414 476 24,000 1,080 Climbing FlightAware
06:29AM 55.9390 36.0220 261° West 428 493 24,600 1,080 Climbing FlightAware
06:30AM 55.9260 35.8640 262° West 435 501 25,600 1,260 Climbing FlightAware
06:31AM 55.9080 35.6680 261° West 442 509 26,700 1,140 Climbing FlightAware
06:32AM 55.8940 35.5100 261° West 448 516 27,500 1,020 Climbing FlightAware
06:32AM 55.8810 35.3650 261° West 455 524 28,200 1,080 Climbing FlightAware
06:33AM 55.8670 35.2180 260° West 456 525 29,000 960 Climbing FlightAware
06:34AM 55.8520 35.0550 261° West 460 529 29,600 660 Climbing FlightAware
06:34AM 55.8460 34.9140 266° West 462 532 29,900 900 Climbing FlightAware
06:36AM 55.8830 34.5400 280° West 444 511 31,800 1,080 Climbing FlightAware
06:37AM 55.9030 34.3950 284° West 440 506 32,600 1,200 Climbing FlightAware
06:37AM 55.9220 34.2440 283° West 433 498 33,500 900 Climbing FlightAware
06:38AM 55.9420 34.0930 283° West 423 487 34,000 300 Climbing FlightAware
06:39AM 55.9590 33.9610 283° West 419 482 34,000  Level FlightAware
06:40AM 55.9770 33.8220 283° West 418 481 34,000  Level FlightAware
06:40AM 55.9940 33.6780 282° West 419 482 34,000  Level FlightAware
06:41AM 56.0130 33.5300 283° West 420 483 34,000  Level FlightAware
06:42AM 56.0300 33.3940 283° West 420 483 34,000  Level FlightAware
06:42AM 56.0460 33.2650 283° West 419 482 34,000  Level FlightAware
06:43AM 56.0660 33.1000 282° West 417 480 34,000  Level FlightAware
06:44AM 56.0820 32.9660 282° West 416 479 34,000  Level FlightAware
06:44AM 56.0920 32.8800 282° West 415 478 34,000  Level FlightAware
06:45AM 56.1080 32.7450 282° West 413 475 34,000  Level FlightAware
06:46AM 56.1240 32.6110 282° West 414 476 34,000  Level FlightAware
06:46AM 56.1400 32.4730 282° West 414 476 34,000  Level FlightAware
06:47AM 56.1540 32.3470 281° West 414 476 34,000  Level FlightAware
06:48AM 56.1750 32.1660 282° West 414 476 34,000  Level FlightAware
06:48AM 56.1880 32.0460 281° West 415 478 34,000  Level FlightAware
06:49AM 56.2030 31.9040 281° West 415 478 34,000  Level FlightAware
06:50AM 56.2150 31.7970 281° West 415 478 34,000  Level FlightAware
06:51AM 56.2310 31.6530 281° West 415 478 34,000  Level FlightAware
06:51AM 56.2420 31.5500 281° West 415 478 34,000  Level FlightAware
06:52AM 56.2560 31.4170 281° West 415 478 34,000  Level FlightAware
06:53AM 56.2680 31.3100 281° West 415 478 34,000  Level FlightAware
06:53AM 56.2820 31.1720 280° West 415 478 34,000  Level FlightAware
06:54AM 56.2950 31.0560 281° West 415 478 34,000  Level FlightAware
06:54AM 56.3020 30.9870 280° West 415 478 34,000  Level FlightAware
06:55AM 56.3150 30.8710 281° West 415 478 34,000  Level FlightAware
06:56AM 56.3300 30.7330 281° West 415 478 34,000  Level FlightAware
06:57AM 56.3410 30.6260 281° West 415 478 34,000  Level FlightAware
06:57AM 56.3560 30.4870 281° West 415 478 34,000  Level FlightAware
06:58AM 56.3680 30.3770 281° West 415 478 34,000  Level FlightAware
07:01AM 56.5322 29.8815 301° West  Level Estimated
07:02AM 56.5956 29.6874 301° West  Level Estimated
07:03AM 56.6588 29.4925 301° West  Level Estimated
07:04AM 56.7216 29.2970 300° West  Level Estimated
07:05AM 56.7841 29.1009 300° West  Level Estimated
07:06AM 56.8464 28.9041 300° West  Level Estimated
07:07AM 56.9083 28.7066 300° West  Level Estimated
07:08AM 56.9699 28.5085 300° West  Level Estimated
07:08AM 56.7230 28.1280 300° West 405 466 34,000  Level FlightAware
07:09AM 56.7380 28.0080 283° West 405 466 34,000  Level FlightAware
07:10AM 56.7540 27.8620 281° West 406 467 34,000  Level FlightAware
07:10AM 56.7620 27.7060 275° West 408 470 34,000  Level FlightAware
07:11AM 56.7650 27.6420 275° West 408 470 34,000  Level FlightAware
07:12AM 56.7780 27.3920 276° West 410 472 34,000  Level FlightAware
07:13AM 56.7850 27.2400 275° West 411 473 34,000  Level FlightAware
07:13AM 56.7920 27.1050 275° West 413 475 34,000  Level FlightAware
07:14AM 56.7980 26.9570 274° West 413 475 34,000  Level FlightAware
07:15AM 56.8040 26.8190 275° West 412 474 34,000  Level FlightAware
07:15AM 56.8110 26.6640 275° West 413 475 34,000  Level FlightAware
07:16AM 56.8170 26.5180 274° West 412 474 34,000  Level FlightAware
07:17AM 56.8180 26.3270 271° West 416 479 34,000  Level FlightAware
07:18AM 56.8120 26.1800 266° West 415 478 34,000  Level FlightAware
07:18AM 56.8050 26.0220 265° West 415 478 34,000  Level FlightAware
07:19AM 56.8000 25.8950 266° West 416 479 34,000  Level FlightAware
07:21AM 56.7890 25.6680 265° West 417 480 34,000  Level FlightAware
07:22AM 56.7740 25.3340 265° West 416 479 34,000  Level FlightAware
07:22AM 56.7680 25.2110 265° West 416 479 34,000  Level FlightAware
07:23AM 56.7590 25.0400 265° West 418 481 34,000  Level FlightAware
07:24AM 56.7520 24.8970 265° West 419 482 34,000  Level FlightAware
07:24AM 56.7450 24.7590 265° West 421 484 34,000  Level FlightAware
07:25AM 56.7340 24.5490 265° West 420 483 34,000  Level FlightAware
07:26AM 56.7270 24.4240 264° West 419 482 34,000  Level FlightAware
07:27AM 56.7170 24.2480 264° West 418 481 34,000  Level FlightAware
07:28AM 56.7080 24.1030 264° West 418 481 34,000  Level FlightAware
07:28AM 56.7000 23.9580 264° West 418 481 34,000  Level FlightAware
07:29AM 56.6910 23.8110 264° West 419 482 34,000  Level FlightAware
07:30AM 56.6830 23.6720 264° West 420 483 34,000  Level FlightAware
07:30AM 56.6750 23.5510 263° West 421 484 34,000  Level FlightAware
07:31AM 56.6640 23.3830 263° West 421 484 34,000  Level FlightAware
07:32AM 56.6550 23.2410 263° West 420 483 34,000  Level FlightAware
07:32AM 56.6460 23.1040 263° West 420 483 34,000  Level FlightAware
07:33AM 56.6360 22.9550 263° West 420 483 34,000  Level FlightAware
07:34AM 56.6260 22.8070 263° West 420 483 34,000  Level FlightAware
07:34AM 56.6150 22.6500 263° West 420 483 34,000  Level FlightAware
07:35AM 56.6060 22.5150 263° West 421 484 34,000  Level FlightAware
07:36AM 56.5950 22.3690 262° West 421 484 34,000  Level FlightAware
07:37AM 56.5820 22.1890 263° West 421 484 34,000  Level FlightAware
07:38AM 56.5660 21.9700 263° West 422 486 34,000  Level FlightAware
07:38AM 56.5540 21.8150 262° West 422 486 34,000  Level FlightAware
07:39AM 56.5430 21.6750 262° West 422 486 34,000  Level FlightAware
07:40AM 56.5320 21.5320 262° West 423 487 34,000  Level FlightAware
07:40AM 56.5200 21.3910 261° West 423 487 34,000  Level FlightAware
07:41AM 56.5070 21.2300 262° West 424 488 34,000  Level FlightAware
07:42AM 56.4950 21.0830 262° West 424 488 34,000  Level FlightAware
07:43AM 56.4840 20.9550 261° West 424 488 34,000  Level FlightAware
07:43AM 56.4710 20.8000 261° West 425 489 34,000  Level FlightAware
07:44AM 56.4590 20.6530 262° West 424 488 34,000  Level FlightAware
07:45AM 56.4460 20.5070 261° West 425 489 34,000  Level FlightAware
07:46AM 56.4380 20.4190 261° West 426 490 34,000  Level FlightAware
07:46AM 56.4150 20.1680 261° West 428 493 34,000  Level FlightAware
07:47AM 56.4020 20.0260 261° West 430 495 34,000  Level FlightAware
07:48AM 56.3870 19.8580 261° West 431 496 34,000  Level FlightAware
07:48AM 56.3730 19.7160 260° West 432 497 34,000  Level FlightAware
07:49AM 56.3580 19.5600 260° West 432 497 34,000  Level FlightAware
07:50AM 56.3440 19.4090 261° West 435 501 34,000  Level FlightAware
07:51AM 56.3300 19.2700 260° West 434 499 34,000  Level FlightAware
07:51AM 56.3150 19.1160 260° West 434 499 34,000  Level FlightAware
07:52AM 56.3000 18.9670 260° West 434 499 34,000  Level FlightAware
07:53AM 56.2860 18.8250 260° West 434 499 34,000  Level FlightAware
07:53AM 56.2760 18.7270 260° West 435 501 34,000  Level FlightAware
07:54AM 56.2590 18.5690 259° West 436 502 34,000 180 Level FlightAware
07:54AM 56.2430 18.4210 259° West 436 502 34,300 660 Climbing FlightAware
07:55AM 56.2300 18.2950 260° West 434 499 34,900 960 Climbing FlightAware
07:56AM 56.2080 18.1470 255° West 431 496 35,600 720 Climbing FlightAware
07:57AM 56.1850 17.9950 255° West 433 498 36,000 240 Climbing FlightAware
07:57AM 56.1820 17.8060 268° West 432 497 36,000  Level FlightAware
07:58AM 56.1880 17.6570 274° West 430 495 36,000  Level FlightAware
07:59AM 56.1940 17.5060 274° West 429 494 36,000  Level FlightAware
07:59AM 56.1990 17.3710 274° West 429 494 36,000  Level FlightAware
08:00AM 56.2040 17.2230 274° West 429 494 36,000  Level FlightAware
08:01AM 56.2090 17.0680 273° West 429 494 36,000  Level FlightAware
08:02AM 56.2140 16.9220 274° West 428 493 36,000  Level FlightAware
08:02AM 56.2190 16.7850 274° West 428 493 36,000  Level FlightAware
08:03AM 56.2240 16.6150 273° West 428 493 36,000  Level FlightAware
08:04AM 56.2280 16.4770 273° West 428 493 36,000  Level FlightAware
08:04AM 56.2320 16.3310 273° West 429 494 36,000  Level FlightAware
08:05AM 56.2360 16.1770 273° West 429 494 36,000  Level FlightAware
08:06AM 56.2400 16.0340 273° West 427 491 36,000  Level FlightAware
08:06AM 56.2430 15.8820 272° West 426 490 36,000  Level FlightAware
08:07AM 56.2470 15.7270 273° West 426 490 36,000  Level FlightAware
08:08AM 56.2500 15.5750 272° West 428 493 36,000  Level FlightAware
08:09AM 56.2530 15.4320 272° West 429 494 36,000  Level FlightAware
08:09AM 56.2560 15.2910 272° West 431 496 36,000  Level FlightAware
08:10AM 56.2590 15.1430 272° West 433 498 36,000  Level FlightAware
08:11AM 56.2610 14.9900 271° West 431 496 36,000  Level FlightAware
08:11AM 56.2640 14.8210 272° West 431 496 36,000  Level FlightAware
08:12AM 56.2660 14.6680 271° West 431 496 36,000  Level FlightAware
08:13AM 56.2680 14.5180 271° West 430 495 36,000  Level FlightAware
08:14AM 56.2700 14.3720 271° West 430 495 36,000  Level FlightAware
08:14AM 56.2720 14.2450 272° West 430 495 36,000  Level FlightAware
08:15AM 56.2730 14.0710 271° West 429 494 36,000  Level FlightAware
08:16AM 56.2750 13.9270 271° West 429 494 36,000  Level FlightAware
08:16AM 56.2760 13.7780 271° West 429 494 36,000  Level FlightAware
08:17AM 56.2770 13.6330 271° West 429 494 36,000  Level FlightAware
08:18AM 56.2770 13.4740 270° West 429 494 36,000  Level FlightAware
08:18AM 56.2780 13.3320 271° West 430 495 36,000  Level FlightAware
08:19AM 56.2780 13.1750 270° West 431 496 36,000  Level FlightAware
08:20AM 56.2780 13.0290 270° West 432 497 36,000  Level FlightAware
08:21AM 56.2780 12.9510 270° West 433 498 36,000  Level FlightAware
08:22AM 56.2780 12.6380 270° West 434 499 36,000  Level FlightAware
08:22AM 56.2780 12.5000 270° West 434 499 36,000  Level FlightAware
08:23AM 56.2770 12.3150 270° West 435 501 36,000  Level FlightAware
08:24AM 56.2760 12.1620 269° West 435 501 36,000  Level FlightAware
08:24AM 56.2750 12.0250 269° West 434 499 36,000  Level FlightAware
08:26AM 56.2740 11.9020 269° West 434 499 36,000  Level FlightAware
08:26AM 56.2720 11.6320 269° West 435 501 36,000  Level FlightAware
08:27AM 56.2700 11.4800 269° West 436 502 36,000  Level FlightAware
08:28AM 56.2680 11.3330 269° West 436 502 36,000  Level FlightAware
08:28AM 56.2660 11.1830 269° West 434 499 36,000  Level FlightAware
08:29AM 56.2640 11.0390 269° West 433 498 36,000  Level FlightAware
08:31AM 56.2580 10.7100 268° West 431 496 36,000  Level FlightAware
08:31AM 56.2560 10.5750 269° West 432 497 36,000  Level FlightAware
08:32AM 56.2520 10.4000 268° West 433 498 36,000  Level FlightAware
08:33AM 56.2490 10.2560 268° West 432 497 36,000  Level FlightAware
08:33AM 56.2460 10.1110 268° West 432 497 36,000  Level FlightAware
08:34AM 56.2420 9.9610 267° West 431 496 36,000  Level FlightAware
08:35AM 56.2370 9.7440 268° West 432 497 36,000  Level FlightAware
08:36AM 56.2330 9.6010 267° West 432 497 36,000  Level FlightAware
08:36AM 56.2300 9.4660 268° West 432 497 36,000  Level FlightAware
08:37AM 56.2250 9.3070 267° West 431 496 36,000  Level FlightAware
08:38AM 56.2200 9.1550 267° West 431 496 36,000  Level FlightAware
08:39AM 56.2160 9.0130 267° West 431 496 36,000  Level FlightAware
08:39AM 56.2110 8.8700 266° West 431 496 36,000  Level FlightAware
08:40AM 56.2070 8.7290 267° West 432 497 36,000  Level FlightAware
08:41AM 56.2010 8.5590 266° West 433 498 36,000  Level FlightAware
08:41AM 56.1950 8.4040 266° West 432 497 36,000  Level FlightAware
08:42AM 56.1900 8.2730 266° West 433 498 36,000  Level FlightAware
08:43AM 56.1840 8.1070 266° West 433 498 36,000  Level FlightAware
08:43AM 56.1780 7.9670 266° West 433 498 36,000  Level FlightAware
08:44AM 56.1720 7.8150 266° West 434 499 36,000  Level FlightAware
08:45AM 56.1650 7.6530 266° West 432 497 36,000  Level FlightAware
08:46AM 56.1580 7.4970 265° West 430 495 36,000  Level FlightAware
08:46AM 56.1520 7.3620 265° West 429 494 36,000  Level FlightAware
08:47AM 56.1450 7.2000 266° West 428 493 36,000  Level FlightAware
08:48AM 56.1380 7.0530 265° West 428 493 36,000  Level FlightAware
08:48AM 56.1330 6.9620 264° West 428 493 36,000  Level FlightAware
08:49AM 56.1240 6.7700 265° West 428 493 36,000  Level FlightAware
08:50AM 56.1150 6.5840 265° West 429 494 36,000  Level FlightAware
08:50AM 56.1120 6.5310 264° West 429 494 36,000  Level FlightAware
08:51AM 56.1030 6.3620 265° West 431 496 36,000  Level FlightAware
08:52AM 56.0940 6.1910 265° West 430 495 36,000  Level FlightAware
08:52AM 56.0870 6.0650 264° West 431 496 36,000  Level FlightAware
08:53AM 56.0780 5.9150 264° West 432 497 36,000  Level FlightAware
08:54AM 56.0711 5.7791 264° West 1 1 36,000  Level FlightAware UK
08:54AM 56.0690 5.7520 264° West 434 499 36,000  Level FlightAware
08:54AM 56.0607 5.6075 264° West 1 1 36,000  Level FlightAware UK
08:55AM 56.0600 5.5980 264° West 435 501 36,000  Level FlightAware
08:55AM 56.0540 5.5030 264° West 436 502 36,000  Level FlightAware
08:55AM 56.0477 5.3927 264° West 1 1 36,000  Level FlightAware UK
08:56AM 56.0365 5.2223 264° West 1 1 36,000  Level FlightAware UK
08:56AM 56.0360 5.2180 264° West 436 502 36,000  Level FlightAware
08:57AM 56.0260 5.0600 264° West 435 501 36,000  Level FlightAware
08:58AM 56.0170 4.9190 264° West 433 498 36,000  Level FlightAware
08:58AM 56.0070 4.7710 263° West 433 498 36,000  Level FlightAware
08:59AM 55.9930 4.5540 264° West 432 497 36,000  Level FlightAware
09:00AM 55.9820 4.4150 262° West 431 496 36,000  Level FlightAware
09:01AM 55.9745 4.2861 262° West 470 541 36,000  Level FlightAware UK
09:01AM 55.9710 4.2500 262° West 433 498 36,000  Level FlightAware
09:02AM 55.9610 4.1070 263° West 433 498 36,000  Level FlightAware
09:03AM 55.9446 3.8845 263° West 470 541 36,000  Level FlightAware UK
09:03AM 55.9370 3.7784 263° West 470 541 36,000  Level FlightAware UK
09:03AM 55.9390 3.8120 263° West 434 499 36,000  Level FlightAware
09:04AM 55.9240 3.6010 263° West 435 501 36,000  Level FlightAware
09:05AM 55.9140 3.4270 264° West 437 503 36,000  Level FlightAware
09:06AM 55.9110 3.2870 268° West 437 503 36,000  Level FlightAware
09:07AM 55.9070 3.1620 267° West 437 503 36,000  Level FlightAware
09:07AM 55.9040 3.0360 267° West 437 503 36,000  Level FlightAware
09:07AM 55.9001 2.8574 267° West 470 541 36,000  Level FlightAware UK
09:08AM 55.8965 2.7285 267° West 470 541 36,000  Level FlightAware UK
09:08AM 55.8960 2.7150 267° West 437 503 36,000  Level FlightAware
09:09AM 55.8928 2.6000 267° West 470 541 36,000  Level FlightAware UK
09:09AM 55.8920 2.5740 267° West 438 504 36,000  Level FlightAware
09:09AM 55.8870 2.4100 267° West 438 504 36,000  Level FlightAware
09:10AM 55.8880 2.2850 271° West 441 507 36,000  Level FlightAware
09:11AM 55.8921 2.1017 271° West 468 539 36,000  Level FlightAware UK
09:11AM 55.8940 2.0160 271° West 442 509 36,000  Level FlightAware
09:12AM 55.8980 1.7965 271° West 472 543 36,000  Level FlightAware UK
09:12AM 55.8970 1.8640 271° West 444 511 36,000  Level FlightAware
09:13AM 55.9007 1.6430 271° West 474 545 36,000  Level FlightAware UK
09:13AM 55.9010 1.6620 271° West 443 510 36,000  Level FlightAware
09:14AM 55.9037 1.4692 271° West 470 541 36,000  Level FlightAware UK
09:15AM 55.9069 1.2743 272° West 468 539 36,000  Level FlightAware UK
09:15AM 55.9087 1.1436 271° West 470 541 36,000  Level FlightAware UK
09:16AM 55.9108 0.9693 271° West 468 539 36,000  Level FlightAware UK
09:17AM 55.9126 0.8157 271° West 470 541 36,000  Level FlightAware UK
09:17AM 55.9140 0.6843 271° West 470 541 36,000  Level FlightAware UK
09:17AM 55.9140 0.7180 271° West 446 513 36,000  Level FlightAware
09:18AM 55.9151 0.5533 271° West 468 539 36,000  Level FlightAware UK
09:18AM 55.9150 0.6050 271° West 446 513 36,000  Level FlightAware
09:19AM 55.9130 0.7810 91° East 446 513 36,000  Level FlightAware
09:20AM 55.9179 0.1597 91° East 466 536 36,000  Level FlightAware UK
09:20AM 55.9130 0.7450 91° East 446 513 36,000  Level FlightAware
09:21AM 55.9140 0.6910 272° West 446 513 36,000  Level FlightAware
09:21AM 55.9194 -0.1925 272° West 470 541 36,000  Level FlightAware UK
09:21AM 55.9140 0.6550 272° West 445 512 36,000  Level FlightAware
09:22AM 55.9197 -0.3914 272° West 474 545 36,000  Level FlightAware UK
09:22AM 55.9150 0.5710 272° West 445 512 36,000  Level FlightAware
09:23AM 55.9170 0.3150 271° West 446 513 36,000  Level FlightAware
09:24AM 55.9190 -0.0930 271° West 449 517 36,000  Level FlightAware
09:24AM 55.9200 -0.5280 270° West 441 507 36,000  Level FlightAware
09:25AM 55.9185 -1.0201 270° West 466 536 36,000  Level FlightAware UK
09:27AM 55.9190 -0.9530 270° West 442 509 36,000  Level FlightAware
09:27AM 55.9160 -1.4660 270° West 448 516 36,000  Level FlightAware
09:28AM 55.9150 -1.5440 269° West 449 517 36,000  Level FlightAware
09:29AM 55.9120 -1.8200 269° West 452 520 36,000  Level FlightAware
09:29AM 55.9110 -1.9780 269° West 451 519 36,000  Level FlightAware
09:31AM 55.9050 -2.2220 268° West 447 514 36,000  Level FlightAware
09:31AM 55.9014 -2.3431 268° West 472 543 36,000  Level FlightAware UK
09:31AM 55.9010 -2.3500 268° West 449 517 36,000  Level FlightAware
09:32AM 55.8970 -2.4752 268° West 474 545 36,000  Level FlightAware UK
09:32AM 55.8950 -2.5170 268° West 448 516 36,000  Level FlightAware
09:33AM 55.8900 -2.6590 266° West 446 513 36,000  Level FlightAware
09:33AM 55.8840 -2.8080 266° West 445 512 36,000  Level FlightAware
09:34AM 55.8776 -2.9789 266° West 470 541 36,000  Level FlightAware UK
09:34AM 55.8770 -2.9900 266° West 443 510 36,000  Level FlightAware
09:35AM 55.8693 -3.1083 266° West 468 539 36,000  Level FlightAware UK
09:35AM 55.8670 -3.1350 266° West 440 506 36,000  Level FlightAware
09:35AM 55.8582 -3.2581 266° West 466 536 36,000  Level FlightAware UK
09:35AM 55.8620 -3.2140 266° West 441 507 36,000  Level FlightAware
09:36AM 55.8422 -3.4739 266° West 468 539 36,000  Level FlightAware UK
09:37AM 55.8320 -3.6027 262° West 468 539 36,000  Level FlightAware UK
09:37AM 55.8099 -3.7254 252° West 470 541 36,000  Level FlightAware UK
09:38AM 55.7908 -3.8271 252° West 472 543 36,000  Level FlightAware UK
09:39AM 55.7677 -3.9496 252° West 472 543 36,000  Level FlightAware UK
09:39AM 55.8730 -3.0700 252° West 443 510 36,000  Level FlightAware
09:39AM 55.7550 -4.0170 258° West 438 504 36,000  Level FlightAware
09:40AM 55.7172 -4.2138 258° West 472 543 36,000  Level FlightAware UK
09:40AM 55.7170 -4.2180 258° West 435 501 36,000  Level FlightAware
09:41AM 55.6701 -4.4576 258° West 472 543 36,000  Level FlightAware UK
09:42AM 55.6503 -4.5588 251° West 472 543 36,000  Level FlightAware UK
09:42AM 55.6305 -4.6597 251° West 470 541 36,000  Level FlightAware UK
09:43AM 55.6160 -4.7320 251° West 438 504 36,000  Level FlightAware
09:43AM 55.6105 -4.7605 251° West 472 543 36,000  Level FlightAware UK
09:43AM 55.5864 -4.8818 251° West 474 545 36,000  Level FlightAware UK
09:43AM 55.6130 -4.7500 251° West 438 504 36,000  Level FlightAware
09:44AM 55.5542 -5.0425 251° West 474 545 36,000  Level FlightAware UK
09:44AM 55.6060 -4.7860 251° West 439 505 36,000  Level FlightAware
09:45AM 55.5910 -4.8600 250° West 439 505 36,000  Level FlightAware
09:46AM 55.4176 -5.4135 250° West 470 541 36,000  Level FlightAware UK
09:47AM 55.5250 -5.1770 250° West 439 505 36,000  Level FlightAware
09:47AM 55.2963 -5.5673 250° West 472 543 36,000  Level FlightAware UK
09:48AM 55.5710 -4.9580 250° West 439 505 36,000  Level FlightAware
09:48AM 55.5470 -5.0760 250° West 437 503 36,000  Level FlightAware
09:49AM 55.1455 -5.7549 250° West 472 543 36,000  Level FlightAware UK
09:50AM 55.3000 -5.5620 250° West 417 480 36,000  Level FlightAware
09:50AM 55.1700 -5.7240 215° Southwest 418 481 36,000  Level FlightAware
09:51AM 55.0264 -6.0308 215° Southwest 474 545 36,000  Level FlightAware UK
09:51AM 54.9943 -6.1167 237° Southwest 470 541 36,000  Level FlightAware UK
09:51AM 55.0800 -5.8870 237° Southwest 427 491 36,000  Level FlightAware
09:52AM 54.9559 -6.2194 237° Southwest 474 545 36,000  Level FlightAware UK
09:52AM 54.9740 -6.1700 237° Southwest 427 491 36,000  Level FlightAware
09:52AM 54.9173 -6.3226 237° Southwest 474 545 36,000  Level FlightAware UK
09:53AM 54.8850 -6.4085 237° Southwest 472 543 36,000  Level FlightAware UK
09:53AM 54.8527 -6.4938 237° Southwest 472 543 36,000  Level FlightAware UK
09:54AM 54.8202 -6.5787 236° Southwest 470 541 36,000  Level FlightAware UK
09:54AM 54.7879 -6.6633 237° Southwest 472 543 36,000  Level FlightAware UK
09:55AM 54.7555 -6.7478 236° Southwest 474 545 36,000  Level FlightAware UK
09:55AM 54.7232 -6.8324 237° Southwest 472 543 36,000  Level FlightAware UK
09:56AM 54.6908 -6.9165 236° Southwest 472 543 36,000  Level FlightAware UK
09:56AM 54.6584 -7.0001 236° Southwest 472 543 36,000  Level FlightAware UK
09:57AM 54.6260 -7.0834 236° Southwest 470 541 36,000  Level FlightAware UK
09:58AM 54.5873 -7.1829 236° Southwest 470 541 36,000  Level FlightAware UK
09:58AM 54.5549 -7.2655 236° Southwest 468 539 36,000  Level FlightAware UK
09:59AM 54.5225 -7.3482 236° Southwest 470 541 36,000  Level FlightAware UK
09:59AM 54.4837 -7.4470 236° Southwest 474 545 36,000  Level FlightAware UK
10:00AM 54.4509 -7.5295 236° Southwest 472 543 36,000  Level FlightAware UK
10:00AM 54.4182 -7.6118 236° Southwest 472 543 36,000  Level FlightAware UK
10:01AM 54.3855 -7.6938 236° Southwest 472 543 36,000  Level FlightAware UK
10:01AM 54.3461 -7.7920 235° Southwest 472 543 36,000  Level FlightAware UK
10:02AM 54.3135 -7.8736 236° Southwest 474 545 36,000  Level FlightAware UK
10:02AM 54.2808 -7.9546 235° Southwest 470 541 36,000  Level FlightAware UK
10:03AM 54.2481 -8.0353 235° Southwest 474 545 36,000  Level FlightAware UK
10:03AM 54.2154 -8.1159 235° Southwest 472 543 36,000  Level FlightAware UK
10:04AM 54.1827 -8.1963 235° Southwest 470 541 36,000  Level FlightAware UK
10:04AM 54.1501 -8.2765 235° Southwest 468 539 36,000  Level FlightAware UK
10:05AM 54.1175 -8.3566 235° Southwest 468 539 36,000  Level FlightAware UK
10:05AM 54.0844 -8.4365 235° Southwest 470 541 36,000  Level FlightAware UK
10:06AM 54.0513 -8.5166 235° Southwest 470 541 36,000  Level FlightAware UK
10:06AM 54.0118 -8.6124 235° Southwest 472 543 36,000  Level FlightAware UK
10:07AM 53.9785 -8.6927 235° Southwest 472 543 36,000  Level FlightAware UK
10:07AM 53.9453 -8.7728 235° Southwest 472 543 36,000  Level FlightAware UK
10:08AM 53.9120 -8.8527 235° Southwest 472 543 36,000  Level FlightAware UK
10:08AM 53.8787 -8.9322 235° Southwest 470 541 36,000  Level FlightAware UK
10:09AM 53.8453 -9.0114 234° Southwest 470 541 36,000  Level FlightAware UK
10:11AM 53.8490 -9.3628 271° West  Level Estimated
10:18AM 53.8534 -10.8390 271° West  Level Estimated
10:19AM 53.8526 -11.0498 270° West  Level Estimated
10:20AM 53.8514 -11.2607 270° West  Level Estimated
10:21AM 53.8498 -11.4716 269° West  Level Estimated
10:22AM 53.8478 -11.6824 269° West  Level Estimated
10:23AM 53.8455 -11.8932 269° West  Level Estimated
10:24AM 53.8428 -12.1040 269° West  Level Estimated
10:25AM 53.8397 -12.3148 269° West  Level Estimated
10:26AM 53.8363 -12.5255 269° West  Level Estimated
10:27AM 53.8325 -12.7362 268° West  Level Estimated
10:28AM 53.8284 -12.9469 268° West  Level Estimated
10:29AM 53.8238 -13.1575 268° West  Level Estimated
10:30AM 53.8189 -13.3681 268° West  Level Estimated
10:31AM 53.8136 -13.5786 268° West  Level Estimated
10:32AM 53.8080 -13.7890 267° West  Level Estimated
10:33AM 53.8020 -13.9994 267° West  Level Estimated
10:34AM 53.7956 -14.2098 267° West  Level Estimated
10:35AM 53.7888 -14.4200 267° West  Level Estimated
10:36AM 53.7817 -14.6302 267° West  Level Estimated
10:37AM 53.7742 -14.8404 267° West  Level Estimated
10:38AM 53.7664 -15.0504 266° West  Level Estimated
10:39AM 53.7581 -15.2604 266° West  Level Estimated
10:40AM 53.7496 -15.4703 266° West  Level Estimated
10:41AM 53.7406 -15.6801 266° West  Level Estimated
10:42AM 53.7313 -15.8898 266° West  Level Estimated
10:43AM 53.7216 -16.0994 266° West  Level Estimated
10:44AM 53.7116 -16.3089 265° West  Level Estimated
10:45AM 53.7011 -16.5184 265° West  Level Estimated
10:46AM 53.6903 -16.7277 265° West  Level Estimated
10:47AM 53.6792 -16.9369 265° West  Level Estimated
10:48AM 53.6677 -17.1460 265° West  Level Estimated
10:49AM 53.6558 -17.3549 265° West  Level Estimated
10:50AM 53.6436 -17.5638 264° West  Level Estimated
10:51AM 53.6310 -17.7725 264° West  Level Estimated
10:52AM 53.6180 -17.9811 264° West  Level Estimated
10:53AM 53.6047 -18.1896 264° West  Level Estimated
10:54AM 53.5910 -18.3979 264° West  Level Estimated
10:55AM 53.5770 -18.6061 264° West  Level Estimated
10:56AM 53.5625 -18.8142 263° West  Level Estimated
10:57AM 53.5478 -19.0221 263° West  Level Estimated
10:58AM 53.5326 -19.2299 263° West  Level Estimated
10:59AM 53.5172 -19.4375 263° West  Level Estimated
11:00AM 53.5013 -19.6450 263° West  Level Estimated
11:01AM 53.4851 -19.8523 263° West  Level Estimated
11:02AM 53.4685 -20.0594 262° West  Level Estimated
11:03AM 53.4516 -20.2664 262° West  Level Estimated
11:04AM 53.4343 -20.4732 262° West  Level Estimated
11:05AM 53.4167 -20.6799 262° West  Level Estimated
11:06AM 53.3987 -20.8864 262° West  Level Estimated
11:07AM 53.3803 -21.0927 262° West  Level Estimated
11:08AM 53.3616 -21.2988 261° West  Level Estimated
11:09AM 53.3425 -21.5047 261° West  Level Estimated
11:10AM 53.3231 -21.7105 261° West  Level Estimated
11:11AM 53.3034 -21.9160 261° West  Level Estimated
11:12AM 53.2832 -22.1214 261° West  Level Estimated
11:13AM 53.2628 -22.3266 261° West  Level Estimated
11:14AM 53.2419 -22.5316 260° West  Level Estimated
11:15AM 53.2207 -22.7364 260° West  Level Estimated
11:16AM 53.1992 -22.9409 260° West  Level Estimated
11:17AM 53.1773 -23.1453 260° West  Level Estimated
11:17AM 49.0000 -20.0000 243° Southwest 458 527 36,000  Level ETMS Enhanced Traffic Management System
11:18AM 53.1551 -23.3495 260° West  Level Estimated
11:19AM 53.1325 -23.5534 260° West  Level Estimated
11:20AM 53.1096 -23.7572 259° West  Level Estimated
11:21AM 53.0863 -23.9607 259° West  Level Estimated
11:22AM 53.0627 -24.1639 259° West  Level Estimated
11:23AM 48.6524 -21.0339 243° Southwest 458 527 36,000  Level FlightAware Transoceanic
11:24AM 48.5936 -21.2048 242° Southwest 458 527 36,000  Level FlightAware Transoceanic
11:25AM 48.5345 -21.3753 242° Southwest 458 527 36,000  Level FlightAware Transoceanic
11:26AM 48.4752 -21.5454 242° Southwest 458 527 36,000  Level FlightAware Transoceanic
11:27AM 48.4157 -21.7152 242° Southwest 458 527 36,000  Level FlightAware Transoceanic
11:28AM 48.3558 -21.8845 242° Southwest 458 527 36,000  Level FlightAware Transoceanic
11:29AM 48.2958 -22.0534 242° Southwest 458 527 36,000  Level FlightAware Transoceanic
11:30AM 48.2355 -22.2219 242° Southwest 458 527 36,000  Level FlightAware Transoceanic
11:31AM 48.1749 -22.3901 242° Southwest 458 527 36,000  Level FlightAware Transoceanic
11:32AM 48.1141 -22.5578 241° Southwest 458 527 36,000  Level FlightAware Transoceanic
11:33AM 48.0530 -22.7251 241° Southwest 458 527 36,000  Level FlightAware Transoceanic
11:34AM 47.9917 -22.8921 241° Southwest 458 527 36,000  Level FlightAware Transoceanic
11:35AM 47.9302 -23.0586 241° Southwest 458 527 36,000  Level FlightAware Transoceanic
11:36AM 47.8684 -23.2248 241° Southwest 458 527 36,000  Level FlightAware Transoceanic
11:37AM 47.8064 -23.3905 241° Southwest 458 527 36,000  Level FlightAware Transoceanic
11:38AM 47.7442 -23.5559 241° Southwest 458 527 36,000  Level FlightAware Transoceanic
11:39AM 47.6817 -23.7208 241° Southwest 458 527 36,000  Level FlightAware Transoceanic
11:40AM 47.6189 -23.8854 240° Southwest 458 527 36,000  Level FlightAware Transoceanic
11:41AM 47.5560 -24.0496 240° Southwest 458 527 36,000  Level FlightAware Transoceanic
11:42AM 47.4928 -24.2134 240° Southwest 458 527 36,000  Level FlightAware Transoceanic
11:43AM 47.4294 -24.3767 240° Southwest 458 527 36,000  Level FlightAware Transoceanic
11:44AM 47.3657 -24.5397 240° Southwest 458 527 36,000  Level FlightAware Transoceanic
11:45AM 47.3018 -24.7023 240° Southwest 458 527 36,000  Level FlightAware Transoceanic
11:46AM 47.2377 -24.8645 240° Southwest 458 527 36,000  Level FlightAware Transoceanic
11:47AM 47.1734 -25.0263 240° Southwest 458 527 36,000  Level FlightAware Transoceanic
11:48AM 47.1088 -25.1877 239° Southwest 458 527 36,000  Level FlightAware Transoceanic
11:49AM 47.0440 -25.3487 239° Southwest 458 527 36,000  Level FlightAware Transoceanic
11:50AM 46.9790 -25.5094 239° Southwest 458 527 36,000  Level FlightAware Transoceanic
11:51AM 46.9137 -25.6696 239° Southwest 458 527 36,000  Level FlightAware Transoceanic
11:52AM 46.8483 -25.8295 239° Southwest 458 527 36,000  Level FlightAware Transoceanic
11:53AM 46.7826 -25.9889 239° Southwest 458 527 36,000  Level FlightAware Transoceanic
11:54AM 46.7166 -26.1480 239° Southwest 458 527 36,000  Level FlightAware Transoceanic
11:55AM 46.6505 -26.3067 239° Southwest 458 527 36,000  Level FlightAware Transoceanic
11:56AM 46.5841 -26.4650 239° Southwest 458 527 36,000  Level FlightAware Transoceanic
11:57AM 46.5176 -26.6229 238° Southwest 458 527 36,000  Level FlightAware Transoceanic
11:58AM 46.4508 -26.7804 238° Southwest 458 527 36,000  Level FlightAware Transoceanic
11:59AM 46.3838 -26.9375 238° Southwest 458 527 36,000  Level FlightAware Transoceanic
12:00PM 46.3166 -27.0942 238° Southwest 458 527 36,000  Level FlightAware Transoceanic
12:01PM 46.2491 -27.2506 238° Southwest 458 527 36,000  Level FlightAware Transoceanic
12:02PM 46.1815 -27.4066 238° Southwest 458 527 36,000  Level FlightAware Transoceanic
12:03PM 46.1136 -27.5622 238° Southwest 458 527 36,000  Level FlightAware Transoceanic
12:04PM 46.0456 -27.7174 238° Southwest 458 527 36,000  Level FlightAware Transoceanic
12:05PM 45.9773 -27.8722 238° Southwest 458 527 36,000  Level FlightAware Transoceanic
12:06PM 45.9088 -28.0267 237° Southwest 458 527 36,000  Level FlightAware Transoceanic
12:07PM 45.8401 -28.1807 237° Southwest 458 527 36,000  Level FlightAware Transoceanic
12:08PM 45.7712 -28.3344 237° Southwest 458 527 36,000  Level FlightAware Transoceanic
12:09PM 45.7021 -28.4877 237° Southwest 458 527 36,000  Level FlightAware Transoceanic
12:10PM 45.6328 -28.6406 237° Southwest 458 527 36,000  Level FlightAware Transoceanic
12:11PM 45.5633 -28.7932 237° Southwest 458 527 36,000  Level FlightAware Transoceanic
12:12PM 45.4936 -28.9453 237° Southwest 458 527 36,000  Level FlightAware Transoceanic
12:13PM 45.4237 -29.0971 237° Southwest 458 527 36,000  Level FlightAware Transoceanic
12:14PM 45.3536 -29.2485 237° Southwest 458 527 36,000  Level FlightAware Transoceanic
12:15PM 45.2832 -29.3996 236° Southwest 458 527 36,000  Level FlightAware Transoceanic
12:16PM 45.2127 -29.5502 236° Southwest 458 527 36,000  Level FlightAware Transoceanic
12:17PM 45.1420 -29.7005 236° Southwest 458 527 36,000  Level FlightAware Transoceanic
12:18PM 45.0711 -29.8505 236° Southwest 458 527 36,000  Level FlightAware Transoceanic
12:19PM 45.0017 -29.9965 236° Southwest  Level FlightAware Approximate
12:20PM 44.9321 -30.1423 236° Southwest  Level FlightAware Approximate
12:21PM 44.9492 -30.1512 245° Southwest  Level FlightAware Approximate
12:22PM 44.8956 -30.3098 245° Southwest  Level FlightAware Approximate
12:23PM 44.8418 -30.4680 244° Southwest  Level FlightAware Approximate
12:24PM 44.7878 -30.6260 244° Southwest  Level FlightAware Approximate
12:25PM 44.7336 -30.7837 244° Southwest  Level FlightAware Approximate
12:26PM 44.6791 -30.9410 244° Southwest  Level FlightAware Approximate
12:27PM 44.6244 -31.0981 244° Southwest  Level FlightAware Approximate
12:28PM 44.5696 -31.2549 244° Southwest  Level FlightAware Approximate
12:29PM 44.5145 -31.4114 244° Southwest  Level FlightAware Approximate
12:30PM 44.4591 -31.5675 244° Southwest  Level FlightAware Approximate
12:31PM 44.4036 -31.7234 244° Southwest  Level FlightAware Approximate
12:32PM 44.3479 -31.8790 243° Southwest  Level FlightAware Approximate
12:33PM 44.2920 -32.0343 243° Southwest  Level FlightAware Approximate
12:34PM 44.2358 -32.1893 243° Southwest  Level FlightAware Approximate
12:35PM 44.1794 -32.3440 243° Southwest  Level FlightAware Approximate
12:36PM 44.1230 -32.4985 243° Southwest  Level FlightAware Approximate
12:37PM 44.0663 -32.6527 243° Southwest  Level FlightAware Approximate
12:38PM 44.0095 -32.8066 243° Southwest  Level FlightAware Approximate
12:39PM 43.9524 -32.9602 243° Southwest  Level FlightAware Approximate
12:40PM 43.8951 -33.1135 243° Southwest  Level FlightAware Approximate
12:41PM 43.8376 -33.2665 243° Southwest  Level FlightAware Approximate
12:42PM 43.7799 -33.4192 242° Southwest  Level FlightAware Approximate
12:43PM 43.7220 -33.5717 242° Southwest  Level FlightAware Approximate
12:44PM 43.6640 -33.7238 242° Southwest  Level FlightAware Approximate
12:45PM 43.6057 -33.8756 242° Southwest  Level FlightAware Approximate
12:46PM 43.5472 -34.0272 242° Southwest  Level FlightAware Approximate
12:47PM 43.4885 -34.1784 242° Southwest  Level FlightAware Approximate
12:48PM 43.4296 -34.3293 242° Southwest  Level FlightAware Approximate
12:49PM 43.3705 -34.4800 242° Southwest  Level FlightAware Approximate
12:50PM 43.3112 -34.6304 242° Southwest  Level FlightAware Approximate
12:51PM 43.2517 -34.7804 241° Southwest  Level FlightAware Approximate
12:52PM 43.1921 -34.9302 241° Southwest  Level FlightAware Approximate
12:53PM 43.1322 -35.0797 241° Southwest  Level FlightAware Approximate
12:54PM 43.0721 -35.2289 241° Southwest  Level FlightAware Approximate
12:55PM 43.0118 -35.3778 241° Southwest  Level FlightAware Approximate
12:56PM 42.9514 -35.5264 241° Southwest  Level FlightAware Approximate
12:57PM 42.8907 -35.6747 241° Southwest  Level FlightAware Approximate
12:58PM 42.8299 -35.8228 241° Southwest  Level FlightAware Approximate
12:59PM 42.7690 -35.9706 241° Southwest  Level FlightAware Approximate
01:00PM 42.7079 -36.1181 241° Southwest  Level FlightAware Approximate
01:01PM 42.6465 -36.2653 241° Southwest  Level FlightAware Approximate
01:02PM 42.5850 -36.4122 240° Southwest  Level FlightAware Approximate
01:03PM 42.5233 -36.5588 240° Southwest  Level FlightAware Approximate
01:04PM 42.4614 -36.7052 240° Southwest  Level FlightAware Approximate
01:05PM 42.3994 -36.8512 240° Southwest  Level FlightAware Approximate
01:06PM 42.3371 -36.9970 240° Southwest  Level FlightAware Approximate
01:07PM 42.2747 -37.1425 240° Southwest  Level FlightAware Approximate
01:08PM 42.2121 -37.2877 240° Southwest  Level FlightAware Approximate
01:09PM 42.1492 -37.4326 240° Southwest  Level FlightAware Approximate
01:10PM 42.0863 -37.5772 240° Southwest  Level FlightAware Approximate
01:11PM 42.0231 -37.7215 240° Southwest  Level FlightAware Approximate
01:12PM 41.9597 -37.8656 239° Southwest  Level FlightAware Approximate
01:13PM 41.8962 -38.0093 239° Southwest  Level FlightAware Approximate
01:14PM 41.8325 -38.1528 239° Southwest  Level FlightAware Approximate
01:15PM 41.7686 -38.2960 239° Southwest  Level FlightAware Approximate
01:16PM 41.7045 -38.4389 239° Southwest  Level FlightAware Approximate
01:17PM 41.6403 -38.5815 239° Southwest  Level FlightAware Approximate
01:18PM 41.5759 -38.7238 239° Southwest  Level FlightAware Approximate
01:19PM 41.5113 -38.8658 239° Southwest  Level FlightAware Approximate
01:20PM 41.4466 -39.0076 239° Southwest  Level FlightAware Approximate
01:21PM 41.3833 -39.1504 239° Southwest  Level FlightAware Approximate
01:22PM 41.3197 -39.2929 239° Southwest  Level FlightAware Approximate
01:23PM 41.2560 -39.4351 239° Southwest  Level FlightAware Approximate
01:24PM 41.1922 -39.5770 239° Southwest  Level FlightAware Approximate
01:25PM 41.1281 -39.7186 239° Southwest  Level FlightAware Approximate
01:26PM 41.0639 -39.8600 239° Southwest  Level FlightAware Approximate
01:27PM 40.9997 -40.0012 252° West  Level FlightAware Approximate
01:27PM 41.0000 -40.0000 252° West 473 544 36,000  Level New York Oceanic (ODAPS)
01:28PM 40.9609 -40.1578 252° West  Level FlightAware Approximate
01:29PM 40.9220 -40.3142 252° West  Level FlightAware Approximate
01:30PM 40.8828 -40.4704 252° West  Level FlightAware Approximate
01:31PM 40.8434 -40.6264 252° West  Level FlightAware Approximate
01:32PM 40.8038 -40.7822 251° West  Level FlightAware Approximate
01:33PM 40.7522 -40.9891 251° West 473 544 36,000  Level FlightAware Transoceanic
01:33PM 40.7500 -41.0000 251° West 472 543 36,000  Level New York Oceanic (ODAPS)
01:34PM 40.7101 -41.1533 251° West 473 544 36,000  Level FlightAware Transoceanic
01:35PM 40.6677 -41.3172 251° West 473 544 36,000  Level FlightAware Transoceanic
01:36PM 40.6251 -41.4809 251° West 473 544 36,000  Level FlightAware Transoceanic
01:37PM 40.5823 -41.6444 251° West 473 544 36,000  Level FlightAware Transoceanic
01:38PM 40.5393 -41.8077 251° West 473 544 36,000  Level FlightAware Transoceanic
01:39PM 40.4940 -41.9804 251° West 472 543 36,000  Level FlightAware Transoceanic
01:40PM 40.4505 -42.1431 251° West 472 543 36,000  Level FlightAware Transoceanic
01:41PM 40.4068 -42.3056 250° West 472 543 36,000  Level FlightAware Transoceanic
01:42PM 40.3629 -42.4678 250° West 472 543 36,000  Level FlightAware Transoceanic
01:43PM 40.3187 -42.6299 250° West 472 543 36,000  Level FlightAware Transoceanic
01:44PM 40.2743 -42.7917 250° West 472 543 36,000  Level FlightAware Transoceanic
01:45PM 40.2297 -42.9533 250° West 472 543 36,000  Level FlightAware Transoceanic
01:46PM 40.1849 -43.1147 250° West 472 543 36,000  Level FlightAware Transoceanic
01:47PM 40.1398 -43.2759 250° West 472 543 36,000  Level FlightAware Transoceanic
01:47PM 40.1500 -43.2333 250° West 473 544 36,000  Level New York Oceanic (ODAPS)
01:48PM 40.0945 -43.4369 250° West 472 543 36,000  Level FlightAware Transoceanic
01:49PM 40.0490 -43.5976 250° West 472 543 36,000  Level FlightAware Transoceanic
01:50PM 40.0033 -43.7582 250° West 472 543 36,000  Level FlightAware Transoceanic
01:51PM 39.9574 -43.9185 249° West 472 543 36,000  Level FlightAware Transoceanic
01:52PM 39.9112 -44.0786 249° West 472 543 36,000  Level FlightAware Transoceanic
01:53PM 39.8739 -44.2021 249° West 473 544 36,000  Level FlightAware Transoceanic
01:54PM 39.8271 -44.3629 249° West 473 544 36,000  Level FlightAware Transoceanic
01:55PM 39.7800 -44.5233 249° West 473 544 36,000  Level FlightAware Transoceanic
01:56PM 39.7328 -44.6836 249° West 473 544 36,000  Level FlightAware Transoceanic
01:57PM 39.6853 -44.8437 249° West 473 544 36,000  Level FlightAware Transoceanic
01:58PM 39.6377 -45.0035 249° West 473 544 36,000  Level FlightAware Transoceanic
01:59PM 39.5898 -45.1631 249° West 473 544 36,000  Level FlightAware Transoceanic
02:00PM 39.5416 -45.3225 249° West 473 544 36,000  Level FlightAware Transoceanic
02:01PM 39.4933 -45.4816 248° West 473 544 36,000  Level FlightAware Transoceanic
02:01PM 39.5000 -45.4500 249° West 473 544 36,000  Level New York Oceanic (ODAPS)
02:02PM 39.4448 -45.6406 248° West 473 544 36,000  Level FlightAware Transoceanic
02:03PM 39.3960 -45.7993 248° West 473 544 36,000  Level FlightAware Transoceanic
02:04PM 39.3470 -45.9578 248° West 473 544 36,000  Level FlightAware Transoceanic
02:05PM 39.2978 -46.1161 248° West 473 544 36,000  Level FlightAware Transoceanic
02:06PM 39.2484 -46.2741 248° West 473 544 36,000  Level FlightAware Transoceanic
02:07PM 39.2043 -46.4070 248° West 473 544 36,000  Level FlightAware Transoceanic
02:08PM 39.1542 -46.5658 248° West 473 544 36,000  Level FlightAware Transoceanic
02:09PM 39.1040 -46.7243 248° West 473 544 36,000  Level FlightAware Transoceanic
02:10PM 39.0535 -46.8825 248° West 473 544 36,000  Level FlightAware Transoceanic
02:11PM 39.0028 -47.0406 248° West 473 544 36,000  Level FlightAware Transoceanic
02:12PM 38.9519 -47.1984 247° West 473 544 36,000  Level FlightAware Transoceanic
02:13PM 38.9008 -47.3559 247° West 473 544 36,000  Level FlightAware Transoceanic
02:14PM 38.8494 -47.5133 247° West 473 544 36,000  Level FlightAware Transoceanic
02:15PM 38.7979 -47.6704 247° West 473 544 36,000  Level FlightAware Transoceanic
02:15PM 38.8167 -47.6333 247° West 473 544 36,000  Level New York Oceanic (ODAPS)
02:16PM 38.7462 -47.8273 247° West 473 544 36,000  Level FlightAware Transoceanic
02:17PM 38.6942 -47.9840 247° West 473 544 36,000  Level FlightAware Transoceanic
02:18PM 38.6420 -48.1405 247° West 473 544 36,000  Level FlightAware Transoceanic
02:19PM 38.5896 -48.2967 247° West 473 544 36,000  Level FlightAware Transoceanic
02:20PM 38.5371 -48.4527 247° West 473 544 36,000  Level FlightAware Transoceanic
02:21PM 38.4957 -48.5864 246° West 473 544 36,000  Level FlightAware Transoceanic
02:22PM 38.4415 -48.7444 246° West 473 544 36,000  Level FlightAware Transoceanic
02:23PM 38.3870 -48.9022 246° West 473 544 36,000  Level FlightAware Transoceanic
02:24PM 38.3324 -49.0597 246° West 473 544 36,000  Level FlightAware Transoceanic
02:25PM 38.2775 -49.2171 246° West 473 544 36,000  Level FlightAware Transoceanic
02:26PM 38.2224 -49.3741 246° West 473 544 36,000  Level FlightAware Transoceanic
02:27PM 38.1671 -49.5309 246° West 473 544 36,000  Level FlightAware Transoceanic
02:28PM 38.1116 -49.6875 246° West 473 544 36,000  Level FlightAware Transoceanic
02:28PM 38.0833 -49.7667 246° West 444 511 36,000  Level New York Oceanic (ODAPS)
02:29PM 38.0559 -49.8439 246° West 473 544 36,000  Level FlightAware Transoceanic
02:30PM 38.0000 -50.0000 253° West 473 544 36,000  Level FlightAware Transoceanic
02:30PM 38.0000 -50.0000 253° West 468 539 36,000  Level New York Oceanic (ODAPS)
02:31PM 37.9610 -50.1572 252° West 473 544 36,000  Level FlightAware Transoceanic
02:32PM 37.9217 -50.3143 252° West 473 544 36,000  Level FlightAware Transoceanic
02:33PM 37.8823 -50.4711 252° West 473 544 36,000  Level FlightAware Transoceanic
02:34PM 37.8426 -50.6278 252° West 473 544 36,000  Level FlightAware Transoceanic
02:35PM 37.8027 -50.7844 252° West 444 511 36,000  Level FlightAware Transoceanic
02:36PM 37.7627 -50.9407 252° West 468 539 36,000  Level FlightAware Transoceanic
02:37PM 37.7224 -51.0969 252° West 468 539 36,000  Level FlightAware Transoceanic
02:38PM 37.6819 -51.2529 252° West 468 539 36,000  Level FlightAware Transoceanic
02:39PM 37.6412 -51.4088 252° West 468 539 36,000  Level FlightAware Transoceanic
02:40PM 37.6003 -51.5645 252° West 468 539 36,000  Level FlightAware Transoceanic
02:41PM 37.5592 -51.7200 252° West 468 539 36,000  Level FlightAware Transoceanic
02:42PM 37.5179 -51.8753 251° West 468 539 36,000  Level FlightAware Transoceanic
02:42PM 37.5000 -51.9667 251° West 467 537 36,000  Level New York Oceanic (ODAPS)
02:43PM 37.4764 -52.0305 251° West 468 539 36,000  Level FlightAware Transoceanic
02:44PM 37.4347 -52.1855 251° West 468 539 36,000  Level FlightAware Transoceanic
02:45PM 37.3928 -52.3403 251° West 468 539 36,000  Level FlightAware Transoceanic
02:46PM 37.3507 -52.4950 251° West 468 539 36,000  Level FlightAware Transoceanic
02:47PM 37.3084 -52.6494 251° West 468 539 36,000  Level FlightAware Transoceanic
02:48PM 37.2493 -52.8845 251° West 467 537 36,000  Level FlightAware Transoceanic
02:49PM 37.2068 -53.0368 251° West 467 537 36,000  Level FlightAware Transoceanic
02:50PM 37.1642 -53.1890 251° West 467 537 36,000  Level FlightAware Transoceanic
02:51PM 37.1213 -53.3410 250° West 467 537 36,000  Level FlightAware Transoceanic
02:52PM 37.0783 -53.4929 250° West 467 537 36,000  Level FlightAware Transoceanic
02:53PM 37.0350 -53.6446 250° West 467 537 36,000  Level FlightAware Transoceanic
02:54PM 36.9916 -53.7961 250° West 467 537 36,000  Level FlightAware Transoceanic
02:55PM 36.9479 -53.9474 250° West 467 537 36,000  Level FlightAware Transoceanic
02:56PM 36.9041 -54.0986 250° West 467 537 36,000  Level FlightAware Transoceanic
02:56PM 36.8833 -54.1500 250° West 464 534 36,000  Level New York Oceanic (ODAPS)
02:57PM 36.8601 -54.2495 250° West 467 537 36,000  Level FlightAware Transoceanic
02:58PM 36.8159 -54.4004 250° West 467 537 36,000  Level FlightAware Transoceanic
02:59PM 36.7715 -54.5510 250° West 467 537 36,000  Level FlightAware Transoceanic
03:00PM 36.7269 -54.7015 250° West 467 537 36,000  Level FlightAware Transoceanic
03:01PM 36.6821 -54.8517 250° West 467 537 36,000  Level FlightAware Transoceanic
03:02PM 36.6192 -55.0452 250° West 464 534 36,000  Level FlightAware Transoceanic
03:03PM 36.5745 -55.1938 249° West 464 534 36,000  Level FlightAware Transoceanic
03:04PM 36.5297 -55.3422 249° West 464 534 36,000  Level FlightAware Transoceanic
03:05PM 36.4846 -55.4905 249° West 464 534 36,000  Level FlightAware Transoceanic
03:06PM 36.4394 -55.6386 249° West 464 534 36,000  Level FlightAware Transoceanic
03:07PM 36.3940 -55.7865 249° West 464 534 36,000  Level FlightAware Transoceanic
03:08PM 36.3484 -55.9342 249° West 464 534 36,000  Level FlightAware Transoceanic
03:09PM 36.3026 -56.0818 249° West 464 534 36,000  Level FlightAware Transoceanic
03:10PM 36.2567 -56.2292 249° West 464 534 36,000  Level FlightAware Transoceanic
03:10PM 36.2500 -56.2500 249° West 455 524 36,000  Level New York Oceanic (ODAPS)
03:11PM 36.2105 -56.3764 249° West 464 534 36,000  Level FlightAware Transoceanic
03:12PM 36.1642 -56.5234 249° West 464 534 36,000  Level FlightAware Transoceanic
03:13PM 36.1177 -56.6703 249° West 464 534 36,000  Level FlightAware Transoceanic
03:14PM 36.0710 -56.8170 248° West 464 534 36,000  Level FlightAware Transoceanic
03:15PM 36.0242 -56.9635 248° West 464 534 36,000  Level FlightAware Transoceanic
03:16PM 35.9719 -57.1258 248° West 455 524 36,000  Level FlightAware Transoceanic
03:17PM 35.9250 -57.2711 248° West 455 524 36,000  Level FlightAware Transoceanic
03:18PM 35.8778 -57.4163 248° West 455 524 36,000  Level FlightAware Transoceanic
03:19PM 35.8305 -57.5613 248° West 455 524 36,000  Level FlightAware Transoceanic
03:20PM 35.7830 -57.7062 248° West 455 524 36,000  Level FlightAware Transoceanic
03:21PM 35.7354 -57.8508 248° West 455 524 36,000  Level FlightAware Transoceanic
03:22PM 35.6875 -57.9953 248° West 455 524 36,000  Level FlightAware Transoceanic
03:23PM 35.6395 -58.1397 248° West 455 524 36,000  Level FlightAware Transoceanic
03:24PM 35.5914 -58.2838 248° West 455 524 36,000  Level FlightAware Transoceanic
03:24PM 35.6000 -58.2667 248° West 449 517 36,000  Level New York Oceanic (ODAPS)
03:25PM 35.5430 -58.4278 248° West 455 524 36,000  Level FlightAware Transoceanic
03:26PM 35.4945 -58.5716 247° West 455 524 36,000  Level FlightAware Transoceanic
03:27PM 35.4458 -58.7152 247° West 455 524 36,000  Level FlightAware Transoceanic
03:28PM 35.3969 -58.8587 247° West 455 524 36,000  Level FlightAware Transoceanic
03:29PM 35.3479 -59.0019 247° West 455 524 36,000  Level FlightAware Transoceanic
03:30PM 35.3031 -59.1366 247° West 449 517 36,000  Level FlightAware Transoceanic
03:31PM 35.2530 -59.2809 247° West 449 517 36,000  Level FlightAware Transoceanic
03:32PM 35.2027 -59.4251 247° West 449 517 36,000  Level FlightAware Transoceanic
03:33PM 35.1523 -59.5691 247° West 449 517 36,000  Level FlightAware Transoceanic
03:34PM 35.1017 -59.7129 247° West 449 517 36,000  Level FlightAware Transoceanic
03:35PM 35.0509 -59.8565 247° West 449 517 36,000  Level FlightAware Transoceanic
03:36PM 35.0000 -60.0000 252° West 449 517 36,000  Level FlightAware Transoceanic
03:36PM 35.0000 -60.0000 252° West 457 526 36,000  Level New York Oceanic (ODAPS)
03:37PM 34.9612 -60.1432 252° West 449 517 36,000  Level FlightAware Transoceanic
03:38PM 34.9222 -60.2862 252° West 449 517 36,000  Level FlightAware Transoceanic
03:38PM 34.9333 -60.2500 252° West 453 521 36,000  Level New York Oceanic (ODAPS)
03:39PM 34.8830 -60.4291 251° West 449 517 36,000  Level FlightAware Transoceanic
03:40PM 34.8437 -60.5719 251° West 449 517 36,000  Level FlightAware Transoceanic
03:41PM 34.8041 -60.7145 251° West 449 517 36,000  Level FlightAware Transoceanic
03:42PM 34.7645 -60.8570 251° West 457 526 36,000  Level FlightAware Transoceanic
03:43PM 34.7246 -60.9994 251° West 457 526 36,000  Level FlightAware Transoceanic
03:44PM 34.6908 -61.1222 251° West 453 521 36,000  Level FlightAware Transoceanic
03:45PM 34.6497 -61.2671 251° West 453 521 36,000  Level FlightAware Transoceanic
03:46PM 34.6086 -61.4118 251° West 453 521 36,000  Level FlightAware Transoceanic
03:47PM 34.5672 -61.5564 251° West 453 521 36,000  Level FlightAware Transoceanic
03:48PM 34.5256 -61.7009 251° West 453 521 36,000  Level FlightAware Transoceanic
03:49PM 34.4839 -61.8452 251° West 453 521 36,000  Level FlightAware Transoceanic
03:50PM 34.4421 -61.9893 251° West 453 521 36,000  Level FlightAware Transoceanic
03:51PM 34.4000 -62.1333 227° Southwest 453 521 36,000  Level FlightAware Transoceanic
03:51PM 34.4000 -62.1333 233° Southwest 462 532 36,000  Level New York Oceanic (ODAPS)
03:51PM 34.3333 -62.2333 233° Southwest 461 531 36,000  Level New York Oceanic (ODAPS)
03:52PM 34.3127 -62.2467 227° Southwest 453 521 36,000  Level FlightAware Transoceanic
03:53PM 34.2253 -62.3599 227° Southwest 453 521 36,000  Level FlightAware Transoceanic
03:54PM 34.1378 -62.4728 227° Southwest 453 521 36,000  Level FlightAware Transoceanic
03:55PM 34.0502 -62.5855 227° Southwest 453 521 36,000  Level FlightAware Transoceanic
03:56PM 33.9625 -62.6979 227° Southwest 453 521 36,000  Level FlightAware Transoceanic
03:57PM 33.9185 -62.8889 232° Southwest 462 532 36,000  Level FlightAware Transoceanic
03:58PM 33.8494 -62.9913 232° Southwest 461 531 36,000  Level FlightAware Transoceanic
03:59PM 33.7683 -63.1168 232° Southwest 461 531 36,000  Level FlightAware Transoceanic
04:00PM 33.6870 -63.2421 232° Southwest 461 531 36,000  Level FlightAware Transoceanic
04:01PM 33.6057 -63.3671 232° Southwest 461 531 36,000  Level FlightAware Transoceanic
04:02PM 33.5242 -63.4919 232° Southwest 461 531 36,000  Level FlightAware Transoceanic
04:03PM 33.4426 -63.6164 232° Southwest 461 531 36,000  Level FlightAware Transoceanic
04:04PM 33.3609 -63.7407 232° Southwest 461 531 36,000  Level FlightAware Transoceanic
04:05PM 33.2790 -63.8648 232° Southwest 461 531 36,000  Level FlightAware Transoceanic
04:05PM 33.2333 -63.9333 232° Southwest 466 536 36,000  Level New York Oceanic (ODAPS)
04:06PM 33.1970 -63.9887 232° Southwest 461 531 36,000  Level FlightAware Transoceanic
04:07PM 33.1149 -64.1123 232° Southwest 461 531 36,000  Level FlightAware Transoceanic
04:08PM 33.0327 -64.2357 231° Southwest 461 531 36,000  Level FlightAware Transoceanic
04:09PM 32.9504 -64.3588 231° Southwest 461 531 36,000 420 Level FlightAware Transoceanic
04:09PM 32.9000 -64.4500 231° Southwest 462 532 36,800  Climbing New York Oceanic (ODAPS)
04:10PM 32.8679 -64.4818 231° Southwest 461 531 36,000 540 Descending FlightAware Transoceanic
04:10PM 32.8667 -64.5000 231° Southwest 463 533 37,000  Climbing New York Oceanic (ODAPS)
04:11PM 32.7853 -64.6045 231° Southwest 461 531 36,000 -600 Descending FlightAware Transoceanic
04:12PM 32.7319 -64.6832 231° Southwest 466 536 36,000  Level FlightAware Transoceanic
04:13PM 32.6479 -64.8073 231° Southwest 466 536 36,000  Level FlightAware Transoceanic
04:14PM 32.5638 -64.9312 231° Southwest 466 536 36,000  Level FlightAware Transoceanic
04:15PM 32.4795 -65.0549 231° Southwest 466 536 36,000 480 Level FlightAware Transoceanic
04:16PM 32.3696 -65.2285 231° Southwest 463 533 37,000 480 Climbing FlightAware Transoceanic
04:17PM 32.2863 -65.3491 231° Southwest 463 533 37,000  Level FlightAware Transoceanic
04:18PM 32.2029 -65.4695 231° Southwest 463 533 37,000  Level FlightAware Transoceanic
04:19PM 32.1194 -65.5897 231° Southwest 463 533 37,000  Level FlightAware Transoceanic
04:19PM 32.0833 -65.6500 230° Southwest 480 552 37,000  Level New York Oceanic (ODAPS)
04:20PM 32.0359 -65.7097 231° Southwest 463 533 37,000  Level FlightAware Transoceanic
04:21PM 31.9521 -65.8295 230° Southwest 463 533 37,000  Level FlightAware Transoceanic
04:22PM 31.8683 -65.9490 230° Southwest 463 533 37,000  Level FlightAware Transoceanic
04:23PM 31.7844 -66.0683 230° Southwest 463 533 37,000  Level FlightAware Transoceanic
04:23PM 31.8000 -66.0500 230° Southwest 487 560 37,000  Level New York Oceanic (ODAPS)
04:24PM 31.7003 -66.1874 230° Southwest 463 533 37,000  Level FlightAware Transoceanic
04:25PM 31.6162 -66.3063 230° Southwest 463 533 37,000  Level FlightAware Transoceanic
04:26PM 31.5104 -66.4600 230° Southwest 480 552 37,000  Level FlightAware Transoceanic
04:27PM 31.4282 -66.5749 230° Southwest 480 552 37,000  Level FlightAware Transoceanic
04:28PM 31.3458 -66.6896 230° Southwest 480 552 37,000  Level FlightAware Transoceanic
04:29PM 31.2440 -66.8296 230° Southwest 487 560 37,000  Level FlightAware Transoceanic
04:30PM 31.1509 -66.9586 230° Southwest 487 560 37,000  Level FlightAware Transoceanic
04:30PM 31.1333 -66.9833 230° Southwest 499 574 37,000  Level New York Oceanic (ODAPS)
04:31PM 31.0576 -67.0874 230° Southwest 487 560 37,000  Level FlightAware Transoceanic
04:32PM 30.9642 -67.2159 230° Southwest 487 560 37,000  Level FlightAware Transoceanic
04:33PM 30.8707 -67.3442 230° Southwest 487 560 37,000  Level FlightAware Transoceanic
04:33PM 30.8833 -67.3500 227° Southwest 483 556 37,000  Level New York Oceanic (ODAPS)
04:34PM 30.7771 -67.4722 230° Southwest 487 560 37,000  Level FlightAware Transoceanic
04:35PM 30.6833 -67.6000 239° Southwest 487 560 37,000  Level FlightAware Transoceanic
04:35PM 30.6833 -67.6000 239° Southwest 498 573 37,000  Level New York Oceanic (ODAPS)
04:36PM 30.6128 -67.7361 239° Southwest 487 560 37,000  Level FlightAware Transoceanic
04:37PM 30.5448 -67.8669 239° Southwest 499 574 37,000  Level FlightAware Transoceanic
04:38PM 30.4753 -68.0000 239° Southwest 499 574 37,000  Level FlightAware Transoceanic
04:39PM 30.4712 -68.0078 239° Southwest 483 556 37,000  Level FlightAware Transoceanic
04:40PM 30.4003 -68.1434 239° Southwest 483 556 37,000  Level FlightAware Transoceanic
04:41PM 30.2579 -68.4138 239° Southwest 498 573 37,000  Level FlightAware Transoceanic
04:42PM 30.1865 -68.5488 238° Southwest 498 573 37,000  Level FlightAware Transoceanic
04:43PM 30.1150 -68.6836 238° Southwest 498 573 37,000  Level FlightAware Transoceanic
04:44PM 30.0433 -68.8181 238° Southwest 498 573 37,000  Level FlightAware Transoceanic
04:45PM 29.9715 -68.9525 238° Southwest 498 573 37,000  Level FlightAware Transoceanic
04:46PM 29.8995 -69.0867 238° Southwest 498 573 37,000  Level FlightAware Transoceanic
04:47PM 29.8274 -69.2206 238° Southwest 498 573 37,000  Level FlightAware Transoceanic
04:48PM 29.7552 -69.3544 238° Southwest 498 573 37,000  Level FlightAware Transoceanic
04:48PM 29.8500 -69.2333 238° Southwest 502 578 37,000  Level New York Oceanic (ODAPS)
04:49PM 29.6829 -69.4880 238° Southwest 498 573 37,000  Level FlightAware Transoceanic
04:50PM 29.6104 -69.6214 238° Southwest 498 573 37,000  Level FlightAware Transoceanic
04:51PM 29.5378 -69.7546 238° Southwest 498 573 37,000  Level FlightAware Transoceanic
04:52PM 29.4650 -69.8876 238° Southwest 498 573 37,000  Level FlightAware Transoceanic
04:53PM 29.3921 -70.0205 238° Southwest 498 573 37,000  Level FlightAware Transoceanic
04:54PM 29.3376 -70.1636 237° Southwest 502 578 37,000  Level FlightAware Transoceanic
04:55PM 29.2638 -70.2958 237° Southwest 502 578 37,000  Level FlightAware Transoceanic
04:56PM 29.1900 -70.4277 237° Southwest 502 578 37,000  Level FlightAware Transoceanic
04:57PM 29.1160 -70.5595 237° Southwest 502 578 37,000  Level FlightAware Transoceanic
04:58PM 29.0419 -70.6910 237° Southwest 502 578 37,000  Level FlightAware Transoceanic
04:59PM 28.9676 -70.8224 237° Southwest 502 578 37,000  Level FlightAware Transoceanic
05:00PM 28.8933 -70.9536 237° Southwest 502 578 37,000  Level FlightAware Transoceanic
05:00PM 28.8833 -71.0000 237° Southwest 493 567 37,000  Level New York Oceanic (ODAPS)
05:01PM 28.8188 -71.0846 237° Southwest 502 578 37,000  Level FlightAware Transoceanic
05:01PM 28.8333 -71.1000 237° Southwest 486 559 37,000  Level New York Oceanic (ODAPS)
05:02PM 28.7441 -71.2154 237° Southwest 502 578 37,000  Level FlightAware Transoceanic
05:03PM 28.6694 -71.3460 237° Southwest 502 578 37,000  Level FlightAware Transoceanic
05:04PM 28.5945 -71.4765 237° Southwest 502 578 37,000  Level FlightAware Transoceanic
05:05PM 28.5195 -71.6067 237° Southwest 502 578 37,000  Level FlightAware Transoceanic
05:06PM 28.4365 -71.7723 236° Southwest 493 567 37,000  Level FlightAware Transoceanic
05:07PM 28.3801 -71.8784 236° Southwest 486 559 37,000  Level FlightAware Transoceanic
05:07PM 28.3167 -71.9167 237° Southwest 488 562 37,000  Level New York Oceanic (ODAPS)
05:08PM 28.3042 -72.0075 236° Southwest 486 559 37,000  Level FlightAware Transoceanic
05:09PM 28.2281 -72.1364 236° Southwest 486 559 37,000  Level FlightAware Transoceanic
05:10PM 28.1519 -72.2651 236° Southwest 486 559 37,000  Level FlightAware Transoceanic
05:11PM 28.0756 -72.3936 236° Southwest 486 559 37,000  Level FlightAware Transoceanic
05:12PM 27.9991 -72.5220 236° Southwest 486 559 37,000  Level FlightAware Transoceanic
05:13PM 27.9226 -72.6501 236° Southwest 486 559 37,000  Level FlightAware Transoceanic
05:14PM 27.8545 -72.7179 237° Southwest 488 562 37,000  Level FlightAware Transoceanic
05:15PM 27.7771 -72.8508 237° Southwest 488 562 37,000  Level FlightAware Transoceanic
05:15PM 27.7667 -72.8833 236° Southwest 483 556 37,000  Level New York Oceanic (ODAPS)
05:16PM 27.6995 -72.9835 237° Southwest 488 562 37,000  Level FlightAware Transoceanic
05:17PM 27.6218 -73.1160 236° Southwest 488 562 37,000  Level FlightAware Transoceanic
05:18PM 27.5439 -73.2483 236° Southwest 488 562 37,000  Level FlightAware Transoceanic
05:19PM 27.4659 -73.3804 236° Southwest 488 562 37,000  Level FlightAware Transoceanic
05:20PM 27.3878 -73.5123 236° Southwest 488 562 37,000  Level FlightAware Transoceanic
05:21PM 27.3048 -73.6588 236° Southwest 483 556 37,000  Level FlightAware Transoceanic
05:22PM 27.2274 -73.7874 236° Southwest 483 556 37,000  Level FlightAware Transoceanic
05:23PM 27.1499 -73.9158 236° Southwest 483 556 37,000  Level FlightAware Transoceanic
05:24PM 27.0723 -74.0440 236° Southwest 483 556 37,000  Level FlightAware Transoceanic
05:25PM 26.9945 -74.1721 236° Southwest 483 556 37,000  Level FlightAware Transoceanic
05:26PM 26.9167 -74.3000 237° Southwest 483 556 37,000  Level FlightAware Transoceanic
05:27PM 26.8412 -74.4285 237° Southwest 483 556 37,000  Level FlightAware Transoceanic
05:28PM 26.7656 -74.5567 237° Southwest 483 556 37,000  Level FlightAware Transoceanic
05:28PM 26.7131 -74.6442 236° Southwest 464 534 37,000  Level Miami Center
05:29PM 26.6899 -74.6849 236° Southwest 483 556 37,000  Level FlightAware Transoceanic
05:29PM 26.6439 -74.7733 239° Southwest 475 547 37,000  Level Miami Center
05:30PM 26.6141 -74.8128 236° Southwest 483 556 37,000  Level FlightAware Transoceanic
05:30PM 26.5706 -74.9003 237° Southwest 480 552 37,000  Level Miami Center
05:31PM 26.5382 -74.9406 236° Southwest 483 556 37,000  Level FlightAware Transoceanic
05:31PM 26.5031 -75.0314 240° Southwest 485 558 37,000  Level Miami Center
05:32PM 26.4621 -75.0682 236° Southwest 483 556 37,000  Level FlightAware Transoceanic
05:32PM 26.4336 -75.1600 239° Southwest 485 558 37,000 -240 Level Miami Center
05:33PM 26.3619 -75.2886 238° Southwest 490 564 36,600 -540 Descending Miami Center
05:34PM 26.2903 -75.4147 238° Southwest 495 570 36,000 -300 Descending Miami Center
05:35PM 26.2247 -75.5500 242° Southwest 495 570 36,000  Level Miami Center
05:36PM 26.1569 -75.6803 240° Southwest 495 570 36,000  Level Miami Center
05:37PM 26.0867 -75.8106 239° Southwest 490 564 36,000  Level Miami Center
05:38PM 26.0186 -75.9406 240° Southwest 490 564 36,000  Level Miami Center
05:39PM 25.9506 -76.0683 239° Southwest 490 564 36,000  Level Miami Center
05:40PM 25.8822 -76.1981 240° Southwest 495 570 36,000  Level Miami Center
05:41PM 25.8117 -76.3256 238° Southwest 495 570 36,000  Level Miami Center
05:42PM 25.7411 -76.4550 239° Southwest 489 563 36,000  Level Miami Center
05:43PM 25.6725 -76.5819 239° Southwest 489 563 36,000  Level Miami Center
05:44PM 25.6036 -76.7114 239° Southwest 489 563 36,000  Level Miami Center
05:45PM 25.5369 -76.8381 240° Southwest 489 563 36,000  Level Miami Center
05:46PM 25.4678 -76.9622 238° Southwest 489 563 36,000  Level Miami Center
05:47PM 25.3967 -77.0911 239° Southwest 489 563 36,000  Level Miami Center
05:48PM 25.3275 -77.2175 239° Southwest 489 563 36,000  Level Miami Center
05:49PM 25.2581 -77.3458 239° Southwest 489 563 36,000  Level Miami Center
05:50PM 25.2075 -77.4514 242° Southwest 489 563 36,000  Level Miami Center
05:57PM 24.7520 -78.2570 242° Southwest 478 550 36,000  Level FlightAware
05:57PM 24.7060 -78.3390 238° Southwest 478 550 36,000  Level FlightAware
05:58PM 24.6570 -78.4250 238° Southwest 478 550 36,000  Level FlightAware
05:59PM 24.6070 -78.5130 238° Southwest 478 550 36,000  Level FlightAware
05:59PM 24.5610 -78.5970 239° Southwest 478 550 36,000  Level FlightAware
06:00PM 24.5080 -78.6890 238° Southwest 477 549 36,000  Level FlightAware
06:01PM 24.4650 -78.7680 239° Southwest 478 550 36,000  Level FlightAware
06:01PM 24.4130 -78.8560 237° Southwest 478 550 36,000  Level FlightAware
06:02PM 24.3490 -78.9720 239° Southwest 476 548 36,000  Level FlightAware
06:03PM 24.3130 -79.0380 239° Southwest 476 548 36,000  Level FlightAware
06:04PM 24.2670 -79.1220 239° Southwest 476 548 36,000  Level FlightAware
06:04PM 24.2310 -79.1870 239° Southwest 476 548 36,000  Level FlightAware
06:05PM 24.1880 -79.2660 239° Southwest 476 548 36,000  Level FlightAware
06:06PM 24.1510 -79.3330 239° Southwest 476 548 36,000  Level FlightAware
06:07PM 24.1040 -79.4190 239° Southwest 476 548 36,000  Level FlightAware
06:07PM 24.0690 -79.4830 239° Southwest 476 548 36,000  Level FlightAware
06:08PM 24.0240 -79.5650 239° Southwest 476 548 36,000  Level FlightAware
06:09PM 23.9880 -79.6300 239° Southwest 476 548 36,000  Level FlightAware
06:09PM 23.9510 -79.6970 239° Southwest 476 548 36,000  Level FlightAware
06:10PM 23.9180 -79.7580 239° Southwest 476 548 36,000  Level FlightAware
06:11PM 23.8670 -79.8510 239° Southwest 476 548 36,000  Level FlightAware
06:12PM 23.8130 -79.9500 239° Southwest 476 548 36,000  Level FlightAware
06:15PM 23.6262 -80.2813 238° Southwest  Level FlightAware Approximate
06:16PM 23.5596 -80.3975 241° Southwest  Level FlightAware Approximate
06:17PM 23.4994 -80.5179 241° Southwest  Level FlightAware Approximate
06:18PM 23.4420 -80.6398 243° Southwest  Level FlightAware Approximate
06:19PM 23.3854 -80.7621 243° Southwest  Level FlightAware Approximate
06:20PM 23.3208 -80.8795 239° Southwest  Level FlightAware Approximate
06:21PM 23.2557 -80.9966 239° Southwest  Level FlightAware Approximate
06:22PM 23.1919 -81.1144 241° Southwest  Level FlightAware Approximate
06:23PM 23.1299 -81.2333 240° Southwest  Level FlightAware Approximate
06:24PM 23.0679 -81.3521 240° Southwest  Level FlightAware Approximate
06:25PM 23.0167 -81.4740 270° West  Level FlightAware Approximate
06:26PM 23.0082 -81.6101 264° West  Level FlightAware Approximate
06:27PM 23.0000 -81.7462 270° West  Level FlightAware Approximate
06:28PM 23.0000 -81.8828 270° West  Level FlightAware Approximate
06:29PM 22.9923 -82.0189 264° West  Level FlightAware Approximate
06:30PM 22.9833 -82.1550 270° West  Level FlightAware Approximate
06:31PM 22.9833 -82.2915 270° West  Level FlightAware Approximate
06:32PM 22.9667 -82.4000 260° West  Level FlightAware Approximate
06:33PM 22.9891 -82.4091 260° West  Level Estimated
06:34PM 22.9891 -82.4091 260° West  Level Estimated
06:35PM 22.9891 -82.4091 260° West  Level Estimated
06:36PM 22.9891 -82.4091 260° West  Level Estimated
06:37PM 22.9891 -82.4091 260° West  Level Estimated
06:38PM 22.9891 -82.4091 260° West  Level Estimated
06:39PM 22.9891 -82.4091 260° West  Level Estimated
06:40PM 22.9891 -82.4091 260° West  Level Estimated
06:41PM 22.9891 -82.4091 260° West  Level Estimated
06:42PM 22.9891 -82.4091 260° West  Level Estimated
06:43PM 22.9891 -82.4091 260° West  Level Estimated
06:44PM 22.9891 -82.4091 260° West  Level Estimated
06:45PM 22.9891 -82.4091 260° West  Level Estimated
06:46PM 22.9891 -82.4091 260° West  Level Estimated
06:47PM 22.9891 -82.4091 260° West  Level Estimated
06:48PM 22.9891 -82.4091 260° West  Level Estimated
06:49PM 22.9891 -82.4091 260° West  Level Estimated
06:50PM 22.9891 -82.4091 260° West  Level Estimated
06:51PM 22.9891 -82.4091 260° West  Level Estimated
06:52PM 22.9891 -82.4091 260° West  Level Estimated
06:53PM 22.9891 -82.4091 260° West  Level Estimated
06:54PM 22.9891 -82.4091 260° West  Level Estimated